sensor_id;sensor_type;location;lat;lon;timestamp;temperature;humidity
36856;DHT22;22788;51.434;6.786;2022-11-18T00:01:07;11.40;95.10
36856;DHT22;22788;51.434;6.786;2022-11-18T00:03:33;11.40;95.20
36856;DHT22;22788;51.434;6.786;2022-11-18T00:05:59;11.40;95.20
36856;DHT22;22788;51.434;6.786;2022-11-18T00:08:27;11.40;95.10
36856;DHT22;22788;51.434;6.786;2022-11-18T00:10:53;11.40;95.20
36856;DHT22;22788;51.434;6.786;2022-11-18T00:13:19;11.40;95.20
36856;DHT22;22788;51.434;6.786;2022-11-18T00:15:45;11.40;95.20
36856;DHT22;22788;51.434;6.786;2022-11-18T00:18:11;11.40;95.20
36856;DHT22;22788;51.434;6.786;2022-11-18T00:20:37;11.30;95.20
36856;DHT22;22788;51.434;6.786;2022-11-18T00:23:03;11.30;95.20
36856;DHT22;22788;51.434;6.786;2022-11-18T00:25:32;11.40;95.20
36856;DHT22;22788;51.434;6.786;2022-11-18T00:27:58;11.40;95.30
36856;DHT22;22788;51.434;6.786;2022-11-18T00:30:24;11.40;95.30
36856;DHT22;22788;51.434;6.786;2022-11-18T00:32:50;11.40;95.20
36856;DHT22;22788;51.434;6.786;2022-11-18T00:35:16;11.40;95.20
36856;DHT22;22788;51.434;6.786;2022-11-18T00:37:42;11.40;95.20
36856;DHT22;22788;51.434;6.786;2022-11-18T00:40:09;11.40;95.30
36856;DHT22;22788;51.434;6.786;2022-11-18T00:42:37;11.30;95.30
36856;DHT22;22788;51.434;6.786;2022-11-18T00:45:03;11.30;95.30
36856;DHT22;22788;51.434;6.786;2022-11-18T00:47:29;11.30;95.20
36856;DHT22;22788;51.434;6.786;2022-11-18T00:49:55;11.30;95.20
36856;DHT22;22788;51.434;6.786;2022-11-18T00:52:21;11.30;95.30
36856;DHT22;22788;51.434;6.786;2022-11-18T00:54:47;11.40;95.30
36856;DHT22;22788;51.434;6.786;2022-11-18T00:57:13;11.40;95.30
36856;DHT22;22788;51.434;6.786;2022-11-18T00:59:41;11.30;95.30
36856;DHT22;22788;51.434;6.786;2022-11-18T01:02:07;11.30;95.30
36856;DHT22;22788;51.434;6.786;2022-11-18T01:04:33;11.30;95.30
36856;DHT22;22788;51.434;6.786;2022-11-18T01:06:59;11.30;95.30
36856;DHT22;22788;51.434;6.786;2022-11-18T01:09:25;11.30;95.30
36856;DHT22;22788;51.434;6.786;2022-11-18T01:11:51;11.50;95.40
36856;DHT22;22788;51.434;6.786;2022-11-18T01:14:18;11.30;95.40
36856;DHT22;22788;51.434;6.786;2022-11-18T01:16:46;11.30;95.40
36856;DHT22;22788;51.434;6.786;2022-11-18T01:19:15;11.30;95.30
36856;DHT22;22788;51.434;6.786;2022-11-18T01:21:45;11.30;95.40
36856;DHT22;22788;51.434;6.786;2022-11-18T01:24:13;11.30;95.30
36856;DHT22;22788;51.434;6.786;2022-11-18T01:26:41;11.30;95.40
36856;DHT22;22788;51.434;6.786;2022-11-18T01:29:10;11.30;95.40
36856;DHT22;22788;51.434;6.786;2022-11-18T01:31:38;11.30;95.40
36856;DHT22;22788;51.434;6.786;2022-11-18T01:34:08;11.30;95.40
36856;DHT22;22788;51.434;6.786;2022-11-18T01:36:35;11.20;95.40
36856;DHT22;22788;51.434;6.786;2022-11-18T01:39:03;11.30;95.50
36856;DHT22;22788;51.434;6.786;2022-11-18T01:41:34;11.20;95.40
36856;DHT22;22788;51.434;6.786;2022-11-18T01:44:03;11.30;95.50
36856;DHT22;22788;51.434;6.786;2022-11-18T01:46:33;11.30;95.50
36856;DHT22;22788;51.434;6.786;2022-11-18T01:49:04;11.30;95.50
36856;DHT22;22788;51.434;6.786;2022-11-18T01:51:40;11.20;95.50
36856;DHT22;22788;51.434;6.786;2022-11-18T01:54:10;11.20;95.40
36856;DHT22;22788;51.434;6.786;2022-11-18T01:56:42;11.40;95.50
36856;DHT22;22788;51.434;6.786;2022-11-18T01:59:14;11.20;95.40
36856;DHT22;22788;51.434;6.786;2022-11-18T02:01:45;11.20;95.60
36856;DHT22;22788;51.434;6.786;2022-11-18T02:04:14;11.20;95.60
36856;DHT22;22788;51.434;6.786;2022-11-18T02:06:45;11.20;95.50
36856;DHT22;22788;51.434;6.786;2022-11-18T02:09:13;11.20;95.50
36856;DHT22;22788;51.434;6.786;2022-11-18T02:11:40;11.20;95.50
36856;DHT22;22788;51.434;6.786;2022-11-18T02:14:07;11.20;95.50
36856;DHT22;22788;51.434;6.786;2022-11-18T02:16:42;11.20;95.50
36856;DHT22;22788;51.434;6.786;2022-11-18T02:19:31;11.20;95.60
36856;DHT22;22788;51.434;6.786;2022-11-18T02:22:18;11.20;95.60
36856;DHT22;22788;51.434;6.786;2022-11-18T02:24:58;11.20;95.70
36856;DHT22;22788;51.434;6.786;2022-11-18T02:30:33;11.20;95.70
36856;DHT22;22788;51.434;6.786;2022-11-18T02:33:07;11.20;95.60
36856;DHT22;22788;51.434;6.786;2022-11-18T02:35:43;11.20;95.60
36856;DHT22;22788;51.434;6.786;2022-11-18T02:38:17;11.20;95.60
36856;DHT22;22788;51.434;6.786;2022-11-18T02:40:48;11.30;95.60
36856;DHT22;22788;51.434;6.786;2022-11-18T02:43:18;11.30;95.60
36856;DHT22;22788;51.434;6.786;2022-11-18T02:45:53;11.30;95.60
36856;DHT22;22788;51.434;6.786;2022-11-18T02:48:24;11.20;95.50
36856;DHT22;22788;51.434;6.786;2022-11-18T02:50:53;11.20;95.60
36856;DHT22;22788;51.434;6.786;2022-11-18T02:53:23;11.20;95.60
36856;DHT22;22788;51.434;6.786;2022-11-18T02:55:51;11.20;95.60
36856;DHT22;22788;51.434;6.786;2022-11-18T02:58:21;11.20;95.60
36856;DHT22;22788;51.434;6.786;2022-11-18T03:00:56;11.20;95.70
36856;DHT22;22788;51.434;6.786;2022-11-18T03:03:26;11.20;95.70
36856;DHT22;22788;51.434;6.786;2022-11-18T03:06:02;11.20;95.60
36856;DHT22;22788;51.434;6.786;2022-11-18T03:08:35;11.20;95.90
36856;DHT22;22788;51.434;6.786;2022-11-18T03:11:11;11.20;95.70
36856;DHT22;22788;51.434;6.786;2022-11-18T03:13:47;11.20;95.70
36856;DHT22;22788;51.434;6.786;2022-11-18T03:16:24;11.20;95.70
36856;DHT22;22788;51.434;6.786;2022-11-18T03:18:54;11.20;95.70
36856;DHT22;22788;51.434;6.786;2022-11-18T03:21:27;11.20;95.70
36856;DHT22;22788;51.434;6.786;2022-11-18T03:24:01;11.20;95.70
36856;DHT22;22788;51.434;6.786;2022-11-18T03:26:31;11.20;95.70
36856;DHT22;22788;51.434;6.786;2022-11-18T03:29:01;11.20;95.60
36856;DHT22;22788;51.434;6.786;2022-11-18T03:31:35;11.20;95.60
36856;DHT22;22788;51.434;6.786;2022-11-18T03:34:05;11.20;95.70
36856;DHT22;22788;51.434;6.786;2022-11-18T03:36:36;11.20;95.70
36856;DHT22;22788;51.434;6.786;2022-11-18T03:39:04;11.20;95.70
36856;DHT22;22788;51.434;6.786;2022-11-18T03:41:35;11.20;95.60
36856;DHT22;22788;51.434;6.786;2022-11-18T03:44:06;11.20;95.70
36856;DHT22;22788;51.434;6.786;2022-11-18T03:46:39;11.20;95.70
36856;DHT22;22788;51.434;6.786;2022-11-18T03:49:10;11.20;95.70
36856;DHT22;22788;51.434;6.786;2022-11-18T03:51:41;11.20;95.70
36856;DHT22;22788;51.434;6.786;2022-11-18T03:54:10;11.20;95.80
36856;DHT22;22788;51.434;6.786;2022-11-18T03:56:41;11.20;95.80
36856;DHT22;22788;51.434;6.786;2022-11-18T03:59:12;11.20;95.80
36856;DHT22;22788;51.434;6.786;2022-11-18T04:01:44;11.20;95.80
36856;DHT22;22788;51.434;6.786;2022-11-18T04:04:12;11.20;95.80
36856;DHT22;22788;51.434;6.786;2022-11-18T04:06:42;11.10;95.80
36856;DHT22;22788;51.434;6.786;2022-11-18T04:09:17;11.30;95.80
36856;DHT22;22788;51.434;6.786;2022-11-18T04:11:48;11.10;95.90
36856;DHT22;22788;51.434;6.786;2022-11-18T04:14:17;11.20;95.80
36856;DHT22;22788;51.434;6.786;2022-11-18T04:16:49;11.20;95.80
36856;DHT22;22788;51.434;6.786;2022-11-18T04:19:16;11.20;95.80
36856;DHT22;22788;51.434;6.786;2022-11-18T04:21:42;11.20;95.90
36856;DHT22;22788;51.434;6.786;2022-11-18T04:24:08;11.20;95.80
36856;DHT22;22788;51.434;6.786;2022-11-18T04:26:34;11.20;95.70
36856;DHT22;22788;51.434;6.786;2022-11-18T04:29:00;11.20;95.80
36856;DHT22;22788;51.434;6.786;2022-11-18T04:31:26;11.20;96.00
36856;DHT22;22788;51.434;6.786;2022-11-18T04:33:55;11.20;95.90
36856;DHT22;22788;51.434;6.786;2022-11-18T04:36:23;11.20;95.80
36856;DHT22;22788;51.434;6.786;2022-11-18T04:38:51;11.10;95.80
36856;DHT22;22788;51.434;6.786;2022-11-18T04:41:19;11.10;95.80
36856;DHT22;22788;51.434;6.786;2022-11-18T04:43:46;11.10;95.90
36856;DHT22;22788;51.434;6.786;2022-11-18T04:46:12;11.10;95.90
36856;DHT22;22788;51.434;6.786;2022-11-18T04:48:38;11.10;95.90
36856;DHT22;22788;51.434;6.786;2022-11-18T04:51:06;11.10;95.90
36856;DHT22;22788;51.434;6.786;2022-11-18T04:53:32;11.20;95.90
36856;DHT22;22788;51.434;6.786;2022-11-18T04:56:04;11.20;95.80
36856;DHT22;22788;51.434;6.786;2022-11-18T04:58:31;11.10;95.80
36856;DHT22;22788;51.434;6.786;2022-11-18T05:01:04;11.10;95.70
36856;DHT22;22788;51.434;6.786;2022-11-18T05:03:38;11.10;96.20
36856;DHT22;22788;51.434;6.786;2022-11-18T05:06:16;11.10;95.90
36856;DHT22;22788;51.434;6.786;2022-11-18T05:08:49;11.10;95.90
36856;DHT22;22788;51.434;6.786;2022-11-18T05:11:23;11.10;95.90
36856;DHT22;22788;51.434;6.786;2022-11-18T05:13:56;11.20;95.90
36856;DHT22;22788;51.434;6.786;2022-11-18T05:16:31;11.10;95.80
36856;DHT22;22788;51.434;6.786;2022-11-18T05:19:00;11.10;95.90
36856;DHT22;22788;51.434;6.786;2022-11-18T05:21:39;11.10;95.90
36856;DHT22;22788;51.434;6.786;2022-11-18T05:24:13;11.10;95.90
36856;DHT22;22788;51.434;6.786;2022-11-18T05:26:40;11.10;95.80
36856;DHT22;22788;51.434;6.786;2022-11-18T05:29:08;11.10;95.80
36856;DHT22;22788;51.434;6.786;2022-11-18T05:31:36;11.10;95.90
36856;DHT22;22788;51.434;6.786;2022-11-18T05:34:04;11.10;95.80
36856;DHT22;22788;51.434;6.786;2022-11-18T05:36:34;11.20;95.90
36856;DHT22;22788;51.434;6.786;2022-11-18T05:39:03;11.10;95.90
36856;DHT22;22788;51.434;6.786;2022-11-18T05:41:29;11.10;95.80
36856;DHT22;22788;51.434;6.786;2022-11-18T05:43:55;11.20;95.90
36856;DHT22;22788;51.434;6.786;2022-11-18T05:46:21;11.20;96.00
36856;DHT22;22788;51.434;6.786;2022-11-18T05:48:47;11.10;95.90
36856;DHT22;22788;51.434;6.786;2022-11-18T05:51:13;11.20;95.90
36856;DHT22;22788;51.434;6.786;2022-11-18T05:53:40;11.10;96.00
36856;DHT22;22788;51.434;6.786;2022-11-18T05:56:15;11.10;95.90
36856;DHT22;22788;51.434;6.786;2022-11-18T05:58:41;11.10;95.90
36856;DHT22;22788;51.434;6.786;2022-11-18T06:01:08;11.10;96.10
36856;DHT22;22788;51.434;6.786;2022-11-18T06:03:37;11.10;95.90
36856;DHT22;22788;51.434;6.786;2022-11-18T06:06:07;11.10;96.00
36856;DHT22;22788;51.434;6.786;2022-11-18T06:08:35;11.10;96.00
36856;DHT22;22788;51.434;6.786;2022-11-18T06:11:05;11.10;95.90
36856;DHT22;22788;51.434;6.786;2022-11-18T06:13:35;11.10;96.00
36856;DHT22;22788;51.434;6.786;2022-11-18T06:16:02;11.10;96.00
36856;DHT22;22788;51.434;6.786;2022-11-18T06:18:29;11.10;95.90
36856;DHT22;22788;51.434;6.786;2022-11-18T06:20:59;11.10;96.00
36856;DHT22;22788;51.434;6.786;2022-11-18T06:23:26;11.10;96.00
36856;DHT22;22788;51.434;6.786;2022-11-18T06:25:53;11.10;95.90
36856;DHT22;22788;51.434;6.786;2022-11-18T06:28:21;11.10;96.00
36856;DHT22;22788;51.434;6.786;2022-11-18T06:30:48;11.10;96.00
36856;DHT22;22788;51.434;6.786;2022-11-18T06:33:17;11.10;96.00
36856;DHT22;22788;51.434;6.786;2022-11-18T06:35:43;11.10;96.00
36856;DHT22;22788;51.434;6.786;2022-11-18T06:38:11;11.10;96.00
36856;DHT22;22788;51.434;6.786;2022-11-18T06:40:37;11.10;96.00
36856;DHT22;22788;51.434;6.786;2022-11-18T06:43:09;11.10;96.00
36856;DHT22;22788;51.434;6.786;2022-11-18T06:45:39;11.10;96.00
36856;DHT22;22788;51.434;6.786;2022-11-18T06:48:07;11.10;96.00
36856;DHT22;22788;51.434;6.786;2022-11-18T06:50:35;11.10;96.00
36856;DHT22;22788;51.434;6.786;2022-11-18T06:53:03;11.10;96.00
36856;DHT22;22788;51.434;6.786;2022-11-18T06:55:31;11.10;96.00
36856;DHT22;22788;51.434;6.786;2022-11-18T06:58:01;11.10;96.00
36856;DHT22;22788;51.434;6.786;2022-11-18T07:00:30;11.10;96.10
36856;DHT22;22788;51.434;6.786;2022-11-18T07:03:01;11.00;96.00
36856;DHT22;22788;51.434;6.786;2022-11-18T07:05:29;11.10;96.10
36856;DHT22;22788;51.434;6.786;2022-11-18T07:07:55;11.10;96.00
36856;DHT22;22788;51.434;6.786;2022-11-18T07:10:23;11.00;96.10
36856;DHT22;22788;51.434;6.786;2022-11-18T07:12:51;11.10;96.00
36856;DHT22;22788;51.434;6.786;2022-11-18T07:15:19;11.00;96.10
36856;DHT22;22788;51.434;6.786;2022-11-18T07:17:46;11.00;96.00
36856;DHT22;22788;51.434;6.786;2022-11-18T07:20:16;11.00;96.10
36856;DHT22;22788;51.434;6.786;2022-11-18T07:22:43;11.10;96.00
36856;DHT22;22788;51.434;6.786;2022-11-18T07:25:11;11.00;96.10
36856;DHT22;22788;51.434;6.786;2022-11-18T07:27:37;11.00;96.10
36856;DHT22;22788;51.434;6.786;2022-11-18T07:30:03;11.00;96.10
36856;DHT22;22788;51.434;6.786;2022-11-18T07:32:31;11.10;96.20
36856;DHT22;22788;51.434;6.786;2022-11-18T07:34:57;11.00;96.00
36856;DHT22;22788;51.434;6.786;2022-11-18T07:37:25;11.10;96.00
36856;DHT22;22788;51.434;6.786;2022-11-18T07:39:51;11.00;96.10
36856;DHT22;22788;51.434;6.786;2022-11-18T07:42:17;11.00;96.10
36856;DHT22;22788;51.434;6.786;2022-11-18T07:44:43;11.00;96.10
36856;DHT22;22788;51.434;6.786;2022-11-18T07:47:09;11.10;96.00
36856;DHT22;22788;51.434;6.786;2022-11-18T07:49:35;11.10;96.10
36856;DHT22;22788;51.434;6.786;2022-11-18T07:52:02;11.10;96.10
36856;DHT22;22788;51.434;6.786;2022-11-18T07:54:29;11.10;96.00
36856;DHT22;22788;51.434;6.786;2022-11-18T07:56:55;11.10;96.10
36856;DHT22;22788;51.434;6.786;2022-11-18T07:59:23;11.10;96.00
36856;DHT22;22788;51.434;6.786;2022-11-18T08:01:51;11.10;96.00
36856;DHT22;22788;51.434;6.786;2022-11-18T08:04:18;11.10;96.00
36856;DHT22;22788;51.434;6.786;2022-11-18T08:06:45;11.10;96.00
36856;DHT22;22788;51.434;6.786;2022-11-18T08:09:13;11.10;96.00
36856;DHT22;22788;51.434;6.786;2022-11-18T08:11:43;11.10;96.10
36856;DHT22;22788;51.434;6.786;2022-11-18T08:14:11;11.10;96.00
36856;DHT22;22788;51.434;6.786;2022-11-18T08:16:38;11.10;96.10
36856;DHT22;22788;51.434;6.786;2022-11-18T08:19:06;11.10;96.10
36856;DHT22;22788;51.434;6.786;2022-11-18T08:21:34;11.10;96.10
36856;DHT22;22788;51.434;6.786;2022-11-18T08:24:03;11.00;96.10
36856;DHT22;22788;51.434;6.786;2022-11-18T08:26:30;11.00;96.10
36856;DHT22;22788;51.434;6.786;2022-11-18T08:29:00;11.00;96.10
36856;DHT22;22788;51.434;6.786;2022-11-18T08:31:29;11.00;96.10
36856;DHT22;22788;51.434;6.786;2022-11-18T08:33:57;11.00;96.10
36856;DHT22;22788;51.434;6.786;2022-11-18T08:36:27;11.00;96.00
36856;DHT22;22788;51.434;6.786;2022-11-18T08:38:57;11.00;96.10
36856;DHT22;22788;51.434;6.786;2022-11-18T08:41:27;11.00;96.20
36856;DHT22;22788;51.434;6.786;2022-11-18T08:43:54;11.00;96.10
36856;DHT22;22788;51.434;6.786;2022-11-18T08:46:21;11.10;96.10
36856;DHT22;22788;51.434;6.786;2022-11-18T08:48:47;11.00;96.00
36856;DHT22;22788;51.434;6.786;2022-11-18T08:51:13;11.00;96.10
36856;DHT22;22788;51.434;6.786;2022-11-18T08:53:39;11.00;96.10
36856;DHT22;22788;51.434;6.786;2022-11-18T08:56:06;11.00;96.20
36856;DHT22;22788;51.434;6.786;2022-11-18T08:58:32;11.00;96.20
36856;DHT22;22788;51.434;6.786;2022-11-18T09:01:03;11.00;96.20
36856;DHT22;22788;51.434;6.786;2022-11-18T09:03:31;11.00;96.20
36856;DHT22;22788;51.434;6.786;2022-11-18T09:06:05;11.00;96.20
36856;DHT22;22788;51.434;6.786;2022-11-18T09:08:31;11.00;96.10
36856;DHT22;22788;51.434;6.786;2022-11-18T09:10:57;11.00;96.30
36856;DHT22;22788;51.434;6.786;2022-11-18T09:13:23;11.00;96.20
36856;DHT22;22788;51.434;6.786;2022-11-18T09:15:49;11.00;96.20
36856;DHT22;22788;51.434;6.786;2022-11-18T09:18:15;11.00;96.10
36856;DHT22;22788;51.434;6.786;2022-11-18T09:20:42;11.00;96.10
36856;DHT22;22788;51.434;6.786;2022-11-18T09:23:18;11.10;96.10
36856;DHT22;22788;51.434;6.786;2022-11-18T09:25:44;11.10;96.10
36856;DHT22;22788;51.434;6.786;2022-11-18T09:28:10;11.00;96.10
36856;DHT22;22788;51.434;6.786;2022-11-18T09:30:36;11.00;96.20
36856;DHT22;22788;51.434;6.786;2022-11-18T09:33:02;11.00;96.20
36856;DHT22;22788;51.434;6.786;2022-11-18T09:35:28;11.00;96.20
36856;DHT22;22788;51.434;6.786;2022-11-18T09:37:55;11.00;96.00
36856;DHT22;22788;51.434;6.786;2022-11-18T09:40:21;11.00;96.10
36856;DHT22;22788;51.434;6.786;2022-11-18T09:42:56;11.00;96.20
36856;DHT22;22788;51.434;6.786;2022-11-18T09:45:29;11.00;96.20
36856;DHT22;22788;51.434;6.786;2022-11-18T09:47:57;11.00;96.20
36856;DHT22;22788;51.434;6.786;2022-11-18T09:50:23;11.00;96.30
36856;DHT22;22788;51.434;6.786;2022-11-18T09:53:00;11.00;96.20
36856;DHT22;22788;51.434;6.786;2022-11-18T09:55:29;10.90;96.20
36856;DHT22;22788;51.434;6.786;2022-11-18T09:57:57;10.90;96.30
36856;DHT22;22788;51.434;6.786;2022-11-18T10:00:26;11.00;96.10
36856;DHT22;22788;51.434;6.786;2022-11-18T10:02:57;11.00;96.10
36856;DHT22;22788;51.434;6.786;2022-11-18T10:05:27;11.10;96.00
36856;DHT22;22788;51.434;6.786;2022-11-18T10:08:01;11.00;96.00
36856;DHT22;22788;51.434;6.786;2022-11-18T10:10:37;11.10;96.10
36856;DHT22;22788;51.434;6.786;2022-11-18T10:13:14;11.00;96.20
36856;DHT22;22788;51.434;6.786;2022-11-18T10:15:51;11.00;96.20
36856;DHT22;22788;51.434;6.786;2022-11-18T10:18:24;11.00;96.30
36856;DHT22;22788;51.434;6.786;2022-11-18T10:20:55;11.00;96.10
36856;DHT22;22788;51.434;6.786;2022-11-18T10:23:27;11.00;96.10
36856;DHT22;22788;51.434;6.786;2022-11-18T10:25:54;11.00;96.20
36856;DHT22;22788;51.434;6.786;2022-11-18T10:28:22;11.10;96.00
36856;DHT22;22788;51.434;6.786;2022-11-18T10:30:49;11.10;96.00
36856;DHT22;22788;51.434;6.786;2022-11-18T10:33:22;11.10;96.00
36856;DHT22;22788;51.434;6.786;2022-11-18T10:35:49;11.10;95.80
36856;DHT22;22788;51.434;6.786;2022-11-18T10:38:17;11.20;95.90
36856;DHT22;22788;51.434;6.786;2022-11-18T10:40:47;11.10;96.10
36856;DHT22;22788;51.434;6.786;2022-11-18T10:43:46;11.10;96.00
36856;DHT22;22788;51.434;6.786;2022-11-18T10:46:18;11.10;96.00
36856;DHT22;22788;51.434;6.786;2022-11-18T10:48:47;11.10;95.90
36856;DHT22;22788;51.434;6.786;2022-11-18T10:51:21;11.10;96.00
36856;DHT22;22788;51.434;6.786;2022-11-18T10:53:47;11.10;95.90
36856;DHT22;22788;51.434;6.786;2022-11-18T10:56:15;11.10;95.90
36856;DHT22;22788;51.434;6.786;2022-11-18T10:58:43;11.10;95.90
36856;DHT22;22788;51.434;6.786;2022-11-18T11:01:18;11.10;95.90
36856;DHT22;22788;51.434;6.786;2022-11-18T11:03:52;11.20;95.80
36856;DHT22;22788;51.434;6.786;2022-11-18T11:06:38;11.20;95.80
36856;DHT22;22788;51.434;6.786;2022-11-18T11:09:06;11.10;95.80
36856;DHT22;22788;51.434;6.786;2022-11-18T11:11:36;11.20;95.90
36856;DHT22;22788;51.434;6.786;2022-11-18T11:14:21;11.20;95.90
36856;DHT22;22788;51.434;6.786;2022-11-18T11:16:58;11.20;95.80
36856;DHT22;22788;51.434;6.786;2022-11-18T11:19:29;11.20;96.00
36856;DHT22;22788;51.434;6.786;2022-11-18T11:21:56;11.20;95.80
36856;DHT22;22788;51.434;6.786;2022-11-18T11:24:25;11.20;95.80
36856;DHT22;22788;51.434;6.786;2022-11-18T11:26:59;11.20;95.70
36856;DHT22;22788;51.434;6.786;2022-11-18T11:29:34;11.30;95.70
36856;DHT22;22788;51.434;6.786;2022-11-18T11:32:09;11.20;95.30
36856;DHT22;22788;51.434;6.786;2022-11-18T11:34:43;11.20;95.50
36856;DHT22;22788;51.434;6.786;2022-11-18T11:37:19;11.20;95.40
36856;DHT22;22788;51.434;6.786;2022-11-18T11:40:02;11.30;95.40
36856;DHT22;22788;51.434;6.786;2022-11-18T11:42:40;11.20;95.40
36856;DHT22;22788;51.434;6.786;2022-11-18T11:45:17;11.20;95.50
36856;DHT22;22788;51.434;6.786;2022-11-18T11:47:54;11.30;95.50
36856;DHT22;22788;51.434;6.786;2022-11-18T11:50:24;11.30;95.60
36856;DHT22;22788;51.434;6.786;2022-11-18T11:53:08;11.30;95.60
36856;DHT22;22788;51.434;6.786;2022-11-18T11:55:50;11.20;95.30
36856;DHT22;22788;51.434;6.786;2022-11-18T11:58:31;11.30;95.60
36856;DHT22;22788;51.434;6.786;2022-11-18T12:01:11;11.30;95.70
36856;DHT22;22788;51.434;6.786;2022-11-18T12:03:44;11.30;95.60
36856;DHT22;22788;51.434;6.786;2022-11-18T12:06:11;11.30;95.60
36856;DHT22;22788;51.434;6.786;2022-11-18T12:08:42;11.30;95.60
36856;DHT22;22788;51.434;6.786;2022-11-18T12:11:13;11.20;95.70
36856;DHT22;22788;51.434;6.786;2022-11-18T12:13:49;11.30;95.60
36856;DHT22;22788;51.434;6.786;2022-11-18T12:16:24;11.30;95.70
36856;DHT22;22788;51.434;6.786;2022-11-18T12:18:56;11.30;95.70
36856;DHT22;22788;51.434;6.786;2022-11-18T12:21:51;11.30;95.60
36856;DHT22;22788;51.434;6.786;2022-11-18T12:24:34;11.30;95.60
36856;DHT22;22788;51.434;6.786;2022-11-18T12:27:04;11.30;95.60
36856;DHT22;22788;51.434;6.786;2022-11-18T12:29:37;11.30;95.60
36856;DHT22;22788;51.434;6.786;2022-11-18T12:32:27;11.30;95.60
36856;DHT22;22788;51.434;6.786;2022-11-18T12:34:59;11.30;95.60
36856;DHT22;22788;51.434;6.786;2022-11-18T12:37:43;11.30;95.60
36856;DHT22;22788;51.434;6.786;2022-11-18T12:40:39;11.30;95.60
36856;DHT22;22788;51.434;6.786;2022-11-18T12:45:54;11.40;95.60
36856;DHT22;22788;51.434;6.786;2022-11-18T12:48:32;11.40;95.50
36856;DHT22;22788;51.434;6.786;2022-11-18T12:50:59;11.40;95.50
36856;DHT22;22788;51.434;6.786;2022-11-18T12:53:35;11.40;95.40
36856;DHT22;22788;51.434;6.786;2022-11-18T12:56:11;11.40;95.40
36856;DHT22;22788;51.434;6.786;2022-11-18T12:58:37;11.40;95.40
36856;DHT22;22788;51.434;6.786;2022-11-18T13:01:12;11.40;95.40
36856;DHT22;22788;51.434;6.786;2022-11-18T13:03:38;11.40;95.40
36856;DHT22;22788;51.434;6.786;2022-11-18T13:06:10;11.40;95.30
36856;DHT22;22788;51.434;6.786;2022-11-18T13:08:37;11.40;95.40
36856;DHT22;22788;51.434;6.786;2022-11-18T13:11:09;11.40;95.30
36856;DHT22;22788;51.434;6.786;2022-11-18T13:13:40;11.40;95.40
36856;DHT22;22788;51.434;6.786;2022-11-18T13:16:17;11.40;95.40
36856;DHT22;22788;51.434;6.786;2022-11-18T13:18:47;11.40;95.40
36856;DHT22;22788;51.434;6.786;2022-11-18T13:21:20;11.40;95.40
36856;DHT22;22788;51.434;6.786;2022-11-18T13:23:46;11.40;95.40
36856;DHT22;22788;51.434;6.786;2022-11-18T13:26:17;11.40;94.90
36856;DHT22;22788;51.434;6.786;2022-11-18T13:28:57;11.40;95.40
36856;DHT22;22788;51.434;6.786;2022-11-18T13:31:29;11.40;95.40
36856;DHT22;22788;51.434;6.786;2022-11-18T13:34:00;11.40;95.40
36856;DHT22;22788;51.434;6.786;2022-11-18T13:36:26;11.40;95.40
36856;DHT22;22788;51.434;6.786;2022-11-18T13:38:56;11.40;95.40
36856;DHT22;22788;51.434;6.786;2022-11-18T13:41:23;11.40;95.40
36856;DHT22;22788;51.434;6.786;2022-11-18T13:43:50;11.40;95.30
36856;DHT22;22788;51.434;6.786;2022-11-18T13:46:18;11.70;95.40
36856;DHT22;22788;51.434;6.786;2022-11-18T13:48:51;11.50;95.30
36856;DHT22;22788;51.434;6.786;2022-11-18T13:51:19;11.50;95.20
36856;DHT22;22788;51.434;6.786;2022-11-18T13:53:46;11.50;95.20
36856;DHT22;22788;51.434;6.786;2022-11-18T13:56:17;11.50;95.30
36856;DHT22;22788;51.434;6.786;2022-11-18T13:58:51;11.50;95.30
36856;DHT22;22788;51.434;6.786;2022-11-18T14:01:18;11.50;95.20
36856;DHT22;22788;51.434;6.786;2022-11-18T14:03:50;11.50;95.50
36856;DHT22;22788;51.434;6.786;2022-11-18T14:06:24;11.50;95.20
36856;DHT22;22788;51.434;6.786;2022-11-18T14:08:50;11.50;95.30
36856;DHT22;22788;51.434;6.786;2022-11-18T14:11:35;11.50;95.30
36856;DHT22;22788;51.434;6.786;2022-11-18T14:14:01;11.50;95.30
36856;DHT22;22788;51.434;6.786;2022-11-18T14:16:33;11.40;95.30
36856;DHT22;22788;51.434;6.786;2022-11-18T14:19:02;11.40;95.20
36856;DHT22;22788;51.434;6.786;2022-11-18T14:21:29;11.50;95.30
36856;DHT22;22788;51.434;6.786;2022-11-18T14:23:56;11.50;95.30
36856;DHT22;22788;51.434;6.786;2022-11-18T14:26:26;11.50;95.30
36856;DHT22;22788;51.434;6.786;2022-11-18T14:28:53;11.50;95.30
36856;DHT22;22788;51.434;6.786;2022-11-18T14:31:24;11.40;95.30
36856;DHT22;22788;51.434;6.786;2022-11-18T14:34:16;11.40;95.30
36856;DHT22;22788;51.434;6.786;2022-11-18T14:36:43;11.50;95.30
36856;DHT22;22788;51.434;6.786;2022-11-18T14:39:12;11.40;95.30
36856;DHT22;22788;51.434;6.786;2022-11-18T14:41:38;11.50;95.30
36856;DHT22;22788;51.434;6.786;2022-11-18T14:44:05;11.50;95.30
36856;DHT22;22788;51.434;6.786;2022-11-18T14:46:31;11.50;95.30
36856;DHT22;22788;51.434;6.786;2022-11-18T14:48:58;11.40;95.40
36856;DHT22;22788;51.434;6.786;2022-11-18T14:51:28;11.40;95.10
36856;DHT22;22788;51.434;6.786;2022-11-18T14:53:54;11.40;95.40
36856;DHT22;22788;51.434;6.786;2022-11-18T14:56:24;11.40;95.50
36856;DHT22;22788;51.434;6.786;2022-11-18T14:58:51;11.40;95.50
36856;DHT22;22788;51.434;6.786;2022-11-18T15:01:17;11.40;95.40
36856;DHT22;22788;51.434;6.786;2022-11-18T15:03:43;11.50;95.50
36856;DHT22;22788;51.434;6.786;2022-11-18T15:06:12;11.40;95.30
36856;DHT22;22788;51.434;6.786;2022-11-18T15:08:40;11.40;95.50
36856;DHT22;22788;51.434;6.786;2022-11-18T15:11:06;11.50;95.50
36856;DHT22;22788;51.434;6.786;2022-11-18T15:13:32;11.40;95.40
36856;DHT22;22788;51.434;6.786;2022-11-18T15:15:58;11.40;95.40
36856;DHT22;22788;51.434;6.786;2022-11-18T15:18:24;11.40;95.40
36856;DHT22;22788;51.434;6.786;2022-11-18T15:20:50;11.40;95.50
36856;DHT22;22788;51.434;6.786;2022-11-18T15:23:16;11.40;95.50
36856;DHT22;22788;51.434;6.786;2022-11-18T15:25:43;11.40;95.50
36856;DHT22;22788;51.434;6.786;2022-11-18T15:28:10;11.40;95.50
36856;DHT22;22788;51.434;6.786;2022-11-18T15:30:36;11.40;95.50
36856;DHT22;22788;51.434;6.786;2022-11-18T15:33:02;11.40;95.50
36856;DHT22;22788;51.434;6.786;2022-11-18T15:35:28;11.40;95.50
36856;DHT22;22788;51.434;6.786;2022-11-18T15:38:02;11.40;95.50
36856;DHT22;22788;51.434;6.786;2022-11-18T15:40:36;11.40;95.50
36856;DHT22;22788;51.434;6.786;2022-11-18T15:43:11;11.40;95.50
36856;DHT22;22788;51.434;6.786;2022-11-18T15:45:56;11.40;95.50
36856;DHT22;22788;51.434;6.786;2022-11-18T15:48:22;11.40;95.50
36856;DHT22;22788;51.434;6.786;2022-11-18T15:50:49;11.40;95.50
36856;DHT22;22788;51.434;6.786;2022-11-18T15:53:17;11.40;95.50